Skiros, Greece
Current Conditions -  °F | °C
As of 8:50 PM on Sunday 21 Dec 2014 (Local Time) from LGSY Reporting Station
Scattered Clouds Scattered Clouds  
Wind Chill: 54°   Ceiling: Unl
Heat Index: 54°   Visibility: 6mi
Dew Point: 41°   Wind: 25mph
Humidity: 62%   Direction: 310°NW
Pressure: 30.15"   Gusts: NA
Location:  38.9°N, 24.56°E
Report Text: LGSY 211750Z 31022KT 9999 FEW012 SCT030 12/05 Q1021 RMK SCT080 BLU
Loading
Personal Weather Stations






























Interactive Weather Map New forecast layout! Learn more

10-Day Weather Forecast

Advertisements
Track Severe Weather on mobile